createdAt,value
2018-09-03T00:01:33.172Z,9.65
2018-09-03T00:04:01.366Z,10.58
2018-09-03T00:06:29.553Z,10.82
2018-09-03T00:08:57.735Z,10.63
2018-09-03T00:11:25.901Z,9.18
2018-09-03T00:13:54.078Z,9.35
2018-09-03T00:16:22.271Z,9.08
2018-09-03T00:18:50.419Z,8.50
2018-09-03T00:21:18.591Z,8.15
2018-09-03T00:23:46.777Z,9.03
2018-09-03T00:26:14.951Z,9.48
2018-09-03T00:28:43.124Z,8.38
2018-09-03T00:31:16.877Z,9.73
2018-09-03T00:33:50.564Z,9.13
2018-09-03T00:36:24.292Z,9.35
2018-09-03T00:38:57.921Z,10.65
2018-09-03T00:41:31.593Z,9.95
2018-09-03T00:44:05.024Z,10.90
2018-09-03T00:46:38.678Z,10.63
2018-09-03T00:49:06.865Z,12.10
2018-09-03T00:51:35.136Z,8.58
2018-09-03T00:54:03.303Z,9.65
2018-09-03T00:56:31.553Z,8.83
2018-09-03T00:58:59.722Z,9.93
2018-09-03T01:01:27.891Z,9.23
2018-09-03T01:03:56.075Z,9.80
2018-09-03T01:06:24.263Z,9.40
2018-09-03T01:08:52.449Z,7.85
2018-09-03T01:11:24.342Z,8.60
2018-09-03T01:13:53.019Z,9.05
2018-09-03T01:16:21.224Z,8.48
2018-09-03T01:18:53.646Z,9.65
2018-09-03T01:21:22.244Z,8.80
2018-09-03T01:23:50.440Z,9.28
2018-09-03T01:26:18.620Z,8.73
2018-09-03T01:28:46.820Z,9.53
2018-09-03T01:31:18.258Z,8.23
2018-09-03T01:33:47.464Z,8.80
2018-09-03T01:36:15.964Z,8.35
2018-09-03T01:38:44.203Z,9.73
2018-09-03T01:41:12.377Z,9.03
2018-09-03T01:43:40.580Z,8.43
2018-09-03T01:46:08.788Z,8.60
2018-09-03T01:48:37.024Z,8.60
2018-09-03T01:51:05.346Z,7.15
2018-09-03T01:53:33.538Z,8.88
2018-09-03T01:56:01.762Z,8.95
2018-09-03T01:58:29.969Z,10.15
2018-09-03T02:00:58.159Z,8.38
2018-09-03T02:03:26.370Z,9.10
2018-09-03T02:05:54.571Z,10.00
2018-09-03T02:08:22.783Z,9.15
2018-09-03T02:10:50.983Z,11.03
2018-09-03T02:13:19.205Z,10.35
2018-09-03T02:15:47.389Z,10.48
2018-09-03T02:18:15.596Z,10.48
2018-09-03T02:20:43.806Z,9.48
2018-09-03T02:23:12.007Z,7.78
2018-09-03T02:25:40.204Z,10.82
2018-09-03T02:28:08.415Z,10.38
2018-09-03T02:30:36.660Z,10.08
2018-09-03T02:33:04.885Z,8.20
2018-09-03T02:35:33.080Z,9.53
2018-09-03T02:38:01.269Z,9.88
2018-09-03T02:40:29.456Z,10.93
2018-09-03T02:42:57.653Z,10.45
2018-09-03T02:45:25.858Z,10.10
2018-09-03T02:47:54.049Z,8.73
2018-09-03T02:50:22.238Z,10.13
2018-09-03T02:52:50.447Z,11.63
2018-09-03T02:55:18.666Z,10.70
2018-09-03T02:57:46.861Z,9.93
2018-09-03T03:00:15.069Z,11.83
2018-09-03T03:02:43.267Z,9.45
2018-09-03T03:05:11.487Z,11.00
2018-09-03T03:07:39.707Z,11.78
2018-09-03T03:10:07.915Z,14.58
2018-09-03T03:12:36.095Z,10.75
2018-09-03T03:15:04.325Z,11.40
2018-09-03T03:17:32.519Z,13.48
2018-09-03T03:20:00.719Z,13.88
2018-09-03T03:22:28.942Z,11.48
2018-09-03T03:24:57.150Z,11.93
2018-09-03T03:27:25.349Z,11.73
2018-09-03T03:29:53.583Z,11.33
2018-09-03T03:32:21.774Z,12.73
2018-09-03T03:34:50.007Z,12.65
2018-09-03T03:37:18.215Z,11.45
2018-09-03T03:39:46.408Z,10.78
2018-09-03T03:42:14.617Z,10.63
2018-09-03T03:44:42.835Z,12.55
2018-09-03T03:47:11.039Z,12.95
2018-09-03T03:49:39.235Z,11.70
2018-09-03T03:52:07.692Z,11.57
2018-09-03T03:54:35.901Z,12.50
2018-09-03T03:57:04.088Z,13.75
2018-09-03T03:59:32.298Z,12.60
2018-09-03T04:02:00.503Z,14.40
2018-09-03T04:04:28.737Z,13.62
2018-09-03T04:06:57.061Z,14.70
2018-09-03T04:09:25.310Z,13.30
2018-09-03T04:11:53.516Z,13.35
2018-09-03T04:14:21.730Z,11.25
2018-09-03T04:16:49.931Z,12.10
2018-09-03T04:19:18.133Z,14.03
2018-09-03T04:21:46.347Z,11.95
2018-09-03T04:24:14.555Z,12.88
2018-09-03T04:26:42.759Z,13.22
2018-09-03T04:29:10.966Z,13.48
2018-09-03T04:31:39.183Z,12.35
2018-09-03T04:34:07.399Z,13.48
2018-09-03T04:36:35.604Z,12.58
2018-09-03T04:39:05.755Z,13.05
2018-09-03T04:41:33.970Z,13.03
2018-09-03T04:44:02.184Z,11.00
2018-09-03T04:46:30.405Z,11.88
2018-09-03T04:48:58.582Z,13.15
2018-09-03T04:51:26.775Z,12.15
2018-09-03T04:53:54.975Z,11.25
2018-09-03T04:56:23.156Z,10.05
2018-09-03T04:58:51.413Z,11.95
2018-09-03T05:01:19.626Z,13.80
2018-09-03T05:03:47.853Z,10.75
2018-09-03T05:06:16.064Z,10.82
2018-09-03T05:08:44.279Z,10.63
2018-09-03T05:11:12.483Z,10.85
2018-09-03T05:13:40.690Z,13.45
2018-09-03T05:16:08.911Z,12.70
2018-09-03T05:18:37.095Z,11.95
2018-09-03T05:21:05.312Z,11.28
2018-09-03T05:23:33.507Z,9.18
2018-09-03T05:26:01.716Z,10.85
2018-09-03T05:28:29.912Z,11.50
2018-09-03T05:30:58.169Z,13.32
2018-09-03T05:33:26.346Z,10.35
2018-09-03T05:35:54.596Z,10.48
2018-09-03T05:38:22.801Z,11.68
2018-09-03T05:40:50.992Z,10.30
2018-09-03T05:43:19.345Z,10.40
2018-09-03T05:45:47.442Z,12.78
2018-09-03T05:48:15.630Z,10.68
2018-09-03T05:50:43.898Z,12.47
2018-09-03T05:53:12.059Z,11.57
2018-09-03T05:55:40.292Z,12.90
2018-09-03T05:58:08.512Z,12.05
2018-09-03T06:00:36.686Z,11.88
2018-09-03T06:03:04.946Z,14.10
2018-09-03T06:05:33.188Z,11.78
2018-09-03T06:08:01.439Z,11.63
2018-09-03T06:10:29.674Z,11.75
2018-09-03T06:12:57.847Z,11.78
2018-09-03T06:15:26.040Z,11.43
2018-09-03T06:17:54.304Z,12.82
2018-09-03T06:20:22.430Z,12.20
2018-09-03T06:22:50.654Z,12.73
2018-09-03T06:25:18.868Z,12.55
2018-09-03T06:27:47.072Z,12.73
2018-09-03T06:30:15.289Z,13.50
2018-09-03T06:32:43.513Z,12.28
2018-09-03T06:35:11.720Z,11.50
2018-09-03T06:37:39.934Z,11.40
2018-09-03T06:40:08.123Z,11.43
2018-09-03T06:42:36.343Z,12.55
2018-09-03T06:45:04.735Z,15.53
2018-09-03T06:47:32.949Z,15.25
2018-09-03T06:50:01.234Z,14.58
2018-09-03T06:52:29.438Z,14.18
2018-09-03T06:54:57.658Z,13.38
2018-09-03T06:57:25.876Z,13.10
2018-09-03T06:59:54.100Z,14.55
2018-09-03T07:02:22.302Z,12.82
2018-09-03T07:04:50.503Z,13.53
2018-09-03T07:07:18.720Z,12.93
2018-09-03T07:09:46.930Z,13.95
2018-09-03T07:12:15.137Z,13.38
2018-09-03T07:14:43.357Z,13.32
2018-09-03T07:17:11.547Z,13.70
2018-09-03T07:19:39.764Z,13.25
2018-09-03T07:22:07.957Z,12.28
2018-09-03T07:24:36.182Z,13.30
2018-09-03T07:27:04.435Z,12.45
2018-09-03T07:29:32.638Z,12.75
2018-09-03T07:32:00.857Z,11.93
2018-09-03T07:34:29.071Z,11.38
2018-09-03T07:36:57.285Z,12.58
2018-09-03T07:39:25.531Z,11.68
2018-09-03T07:41:53.740Z,11.28
2018-09-03T07:44:21.969Z,12.00
2018-09-03T07:46:50.177Z,11.20
2018-09-03T07:49:18.409Z,11.80
2018-09-03T07:51:46.610Z,10.63
2018-09-03T07:54:14.827Z,10.53
2018-09-03T07:56:43.022Z,11.15
2018-09-03T07:59:11.238Z,11.60
2018-09-03T08:01:39.449Z,10.43
2018-09-03T08:04:07.807Z,11.08
2018-09-03T08:06:36.059Z,10.93
2018-09-03T08:09:06.171Z,10.30
2018-09-03T08:11:34.817Z,9.85
2018-09-03T08:14:03.015Z,9.10
2018-09-03T08:16:31.195Z,9.38
2018-09-03T08:18:59.423Z,8.33
2018-09-03T08:21:27.621Z,8.75
2018-09-03T08:23:55.823Z,8.90
2018-09-03T08:26:23.995Z,8.53
2018-09-03T08:28:52.189Z,10.10
2018-09-03T08:31:20.397Z,8.25
2018-09-03T08:33:48.596Z,8.45
2018-09-03T08:36:16.798Z,7.85
2018-09-03T08:38:44.996Z,9.75
2018-09-03T08:41:13.208Z,8.10
2018-09-03T08:43:41.441Z,10.43
2018-09-03T08:46:09.666Z,8.60
2018-09-03T08:48:37.947Z,8.80
2018-09-03T08:51:06.152Z,8.80
2018-09-03T08:53:34.373Z,8.30
2018-09-03T08:56:02.563Z,9.13
2018-09-03T08:58:30.755Z,10.78
2018-09-03T09:00:58.992Z,10.05
2018-09-03T09:03:32.557Z,11.22
2018-09-03T09:06:00.755Z,9.63
2018-09-03T09:08:28.952Z,9.75
2018-09-03T09:10:57.154Z,10.35
2018-09-03T09:13:25.346Z,9.63
2018-09-03T09:15:53.545Z,9.78
2018-09-03T09:18:21.744Z,9.40
2018-09-03T09:20:49.951Z,7.72
2018-09-03T09:23:18.141Z,7.87
2018-09-03T09:25:46.340Z,7.45
2018-09-03T09:28:14.528Z,7.00
2018-09-03T09:30:42.740Z,8.45
2018-09-03T09:33:10.933Z,8.55
2018-09-03T09:35:39.200Z,8.53
2018-09-03T09:38:07.665Z,7.50
2018-09-03T09:40:36.068Z,8.20
2018-09-03T09:43:04.325Z,6.92
2018-09-03T09:45:32.491Z,7.90
2018-09-03T09:48:00.862Z,6.83
2018-09-03T09:50:29.066Z,7.17
2018-09-03T09:52:57.294Z,6.75
2018-09-03T09:55:25.579Z,8.70
2018-09-03T09:57:53.808Z,7.83
2018-09-03T10:00:27.407Z,6.90
2018-09-03T10:02:55.611Z,5.97
2018-09-03T10:05:23.919Z,5.80
2018-09-03T10:07:52.124Z,5.20
2018-09-03T10:10:20.380Z,5.47
2018-09-03T10:12:48.563Z,6.28
2018-09-03T10:15:16.773Z,5.65
2018-09-03T10:17:44.992Z,5.75
2018-09-03T10:20:13.195Z,5.33
2018-09-03T10:22:41.403Z,5.17
2018-09-03T10:25:09.728Z,5.37
2018-09-03T10:27:37.966Z,5.40
2018-09-03T10:30:06.169Z,5.05
2018-09-03T10:32:34.368Z,4.78
2018-09-03T10:35:02.576Z,5.95
2018-09-03T10:37:30.786Z,6.10
2018-09-03T10:39:59.043Z,5.17
2018-09-03T10:42:28.622Z,4.10
2018-09-03T10:44:56.810Z,4.58
2018-09-03T10:47:25.150Z,4.70
2018-09-03T10:49:53.197Z,4.75
2018-09-03T10:52:21.383Z,4.30
2018-09-03T10:54:49.602Z,3.98
2018-09-03T10:57:17.815Z,3.77
2018-09-03T10:59:45.996Z,3.98
2018-09-03T11:02:14.208Z,4.87
2018-09-03T11:04:42.407Z,4.47
2018-09-03T11:07:10.598Z,4.00
2018-09-03T11:09:38.781Z,4.67
2018-09-03T11:12:07.796Z,5.80
2018-09-03T11:14:36.019Z,4.72
2018-09-03T11:17:04.298Z,4.62
2018-09-03T11:19:35.683Z,4.78
2018-09-03T11:22:06.280Z,5.05
2018-09-03T11:24:34.830Z,4.60
2018-09-03T11:27:03.510Z,4.58
2018-09-03T11:29:31.751Z,5.45
2018-09-03T11:31:59.976Z,4.75
2018-09-03T11:34:28.174Z,4.40
2018-09-03T11:36:56.377Z,5.45
2018-09-03T11:39:24.633Z,4.78
2018-09-03T11:41:52.817Z,4.87
2018-09-03T11:44:20.999Z,4.67
2018-09-03T11:46:49.237Z,5.37
2018-09-03T11:49:17.431Z,5.00
2018-09-03T11:51:45.668Z,4.83
2018-09-03T11:54:13.863Z,4.40
2018-09-03T11:56:42.055Z,4.72
2018-09-03T11:59:10.266Z,4.03
2018-09-03T12:01:38.501Z,4.62
2018-09-03T12:04:06.712Z,4.00
2018-09-03T12:06:34.918Z,3.60
2018-09-03T12:09:03.908Z,3.70
2018-09-03T12:11:38.729Z,3.62
2018-09-03T12:14:10.064Z,4.60
2018-09-03T12:16:38.226Z,3.83
2018-09-03T12:19:06.426Z,3.70
2018-09-03T12:21:34.604Z,3.33
2018-09-03T12:24:02.795Z,3.47
2018-09-03T12:26:31.001Z,3.65
2018-09-03T12:28:59.213Z,5.42
2018-09-03T12:31:27.463Z,3.50
2018-09-03T12:33:55.662Z,4.17
2018-09-03T12:36:23.856Z,3.83
2018-09-03T12:38:52.094Z,3.87
2018-09-03T12:41:20.310Z,3.80
2018-09-03T12:43:48.515Z,3.77
2018-09-03T12:46:16.786Z,3.30
2018-09-03T12:48:44.935Z,3.70
2018-09-03T12:51:13.153Z,6.03
2018-09-03T12:53:41.307Z,3.50
2018-09-03T12:56:09.530Z,3.00
2018-09-03T12:58:37.725Z,3.77
2018-09-03T13:01:06.247Z,3.70
2018-09-03T13:03:34.451Z,3.62
2018-09-03T13:06:02.673Z,4.12
2018-09-03T13:08:30.838Z,3.75
2018-09-03T13:10:59.025Z,3.58
2018-09-03T13:13:27.204Z,3.60
2018-09-03T13:15:55.402Z,3.83
2018-09-03T13:18:23.643Z,3.58
2018-09-03T13:20:51.865Z,3.35
2018-09-03T13:23:20.052Z,3.27
2018-09-03T13:25:48.282Z,3.58
2018-09-03T13:28:16.480Z,3.10
2018-09-03T13:30:44.708Z,3.90
2018-09-03T13:33:12.879Z,3.75
2018-09-03T13:35:41.099Z,3.87
2018-09-03T13:38:09.288Z,4.35
2018-09-03T13:40:38.259Z,3.17
2018-09-03T13:43:06.470Z,3.60
2018-09-03T13:45:34.672Z,3.30
2018-09-03T13:48:02.840Z,3.45
2018-09-03T13:50:31.034Z,3.35
2018-09-03T13:52:59.226Z,3.62
2018-09-03T13:55:27.435Z,6.22
2018-09-03T13:57:55.632Z,3.67
2018-09-03T14:00:23.824Z,4.30
2018-09-03T14:02:51.999Z,4.72
2018-09-03T14:05:20.179Z,3.85
2018-09-03T14:07:48.650Z,3.65
2018-09-03T14:10:16.974Z,4.80
2018-09-03T14:12:45.147Z,3.30
2018-09-03T14:15:13.349Z,3.77
2018-09-03T14:17:41.683Z,3.80
2018-09-03T14:20:09.901Z,3.72
2018-09-03T14:22:38.100Z,3.77
2018-09-03T14:25:06.285Z,4.65
2018-09-03T14:27:34.513Z,4.00
2018-09-03T14:30:02.690Z,3.72
2018-09-03T14:32:30.882Z,3.72
2018-09-03T14:34:59.093Z,3.52
2018-09-03T14:37:27.301Z,3.83
2018-09-03T14:39:55.495Z,3.50
2018-09-03T14:42:23.720Z,3.83
2018-09-03T14:44:51.933Z,4.95
2018-09-03T14:47:20.136Z,3.00
2018-09-03T14:49:48.322Z,3.72
2018-09-03T14:52:16.526Z,3.77
2018-09-03T14:54:44.717Z,3.67
2018-09-03T14:57:12.928Z,3.80
2018-09-03T14:59:41.410Z,5.33
2018-09-03T15:02:09.605Z,5.45
2018-09-03T15:04:37.803Z,3.80
2018-09-03T15:07:06.515Z,4.15
2018-09-03T15:09:34.748Z,4.03
2018-09-03T15:12:02.928Z,5.00
2018-09-03T15:14:31.133Z,3.95
2018-09-03T15:16:59.319Z,3.30
2018-09-03T15:19:27.507Z,4.03
2018-09-03T15:21:55.711Z,3.70
2018-09-03T15:24:23.910Z,3.77
2018-09-03T15:26:52.099Z,3.95
2018-09-03T15:29:20.294Z,4.67
2018-09-03T15:31:48.519Z,4.65
2018-09-03T15:34:16.738Z,4.00
2018-09-03T15:36:45.013Z,4.00
2018-09-03T15:39:13.536Z,4.22
2018-09-03T15:41:42.133Z,4.50
2018-09-03T15:44:10.317Z,4.33
2018-09-03T15:46:38.488Z,3.90
2018-09-03T15:49:06.814Z,4.33
2018-09-03T15:51:34.876Z,3.83
2018-09-03T15:54:03.129Z,3.90
2018-09-03T15:56:31.292Z,4.28
2018-09-03T15:58:59.500Z,4.37
2018-09-03T16:01:27.678Z,4.03
2018-09-03T16:03:55.879Z,4.80
2018-09-03T16:06:24.063Z,4.17
2018-09-03T16:08:52.292Z,3.77
2018-09-03T16:11:20.523Z,3.83
2018-09-03T16:13:48.745Z,3.80
2018-09-03T16:16:16.923Z,3.62
2018-09-03T16:18:45.398Z,4.15
2018-09-03T16:21:13.596Z,4.30
2018-09-03T16:23:41.796Z,3.98
2018-09-03T16:26:09.973Z,6.03
2018-09-03T16:28:38.186Z,3.90
2018-09-03T16:31:06.367Z,4.45
2018-09-03T16:33:34.578Z,3.95
2018-09-03T16:36:02.857Z,4.17
2018-09-03T16:38:31.007Z,4.42
2018-09-03T16:40:59.224Z,3.83
2018-09-03T16:43:27.440Z,3.92
2018-09-03T16:45:55.643Z,3.92
2018-09-03T16:48:23.842Z,4.70
2018-09-03T16:50:52.039Z,4.33
2018-09-03T16:53:20.232Z,4.20
2018-09-03T16:55:48.426Z,3.92
2018-09-03T16:58:16.755Z,3.52
2018-09-03T17:00:44.959Z,3.52
2018-09-03T17:03:13.206Z,3.98
2018-09-03T17:05:41.609Z,4.35
2018-09-03T17:08:10.031Z,4.03
2018-09-03T17:10:38.060Z,5.35
2018-09-03T17:13:06.342Z,4.70
2018-09-03T17:15:34.543Z,4.05
2018-09-03T17:18:02.718Z,4.42
2018-09-03T17:20:31.565Z,5.95
2018-09-03T17:22:59.675Z,4.58
2018-09-03T17:25:27.863Z,4.30
2018-09-03T17:27:56.181Z,5.62
2018-09-03T17:30:24.390Z,4.00
2018-09-03T17:32:52.597Z,3.75
2018-09-03T17:35:20.884Z,4.47
2018-09-03T17:37:49.062Z,4.75
2018-09-03T17:40:17.311Z,4.85
2018-09-03T17:42:45.516Z,4.47
2018-09-03T17:45:13.742Z,5.10
2018-09-03T17:47:41.920Z,4.15
2018-09-03T17:50:10.141Z,3.90
2018-09-03T17:52:38.341Z,3.87
2018-09-03T17:55:07.506Z,3.83
2018-09-03T17:57:36.564Z,3.75
2018-09-03T18:00:04.996Z,3.30
2018-09-03T18:02:33.192Z,3.50
2018-09-03T18:05:01.393Z,3.75
2018-09-03T18:07:29.593Z,3.50
2018-09-03T18:09:57.816Z,3.60
2018-09-03T18:12:26.007Z,4.15
2018-09-03T18:14:54.198Z,3.60
2018-09-03T18:17:22.435Z,4.25
2018-09-03T18:19:50.675Z,3.42
2018-09-03T18:22:18.879Z,3.72
2018-09-03T18:24:47.073Z,3.95
2018-09-03T18:27:16.358Z,4.58
2018-09-03T18:29:44.563Z,4.72
2018-09-03T18:32:12.770Z,4.03
2018-09-03T18:34:40.966Z,4.30
2018-09-03T18:37:09.258Z,4.83
2018-09-03T18:39:37.432Z,4.72
2018-09-03T18:42:05.798Z,5.05
2018-09-03T18:44:33.928Z,6.47
2018-09-03T18:47:02.198Z,4.80
2018-09-03T18:49:30.390Z,5.67
2018-09-03T18:51:58.567Z,5.70
2018-09-03T18:54:26.759Z,5.22
2018-09-03T18:56:55.017Z,6.25
2018-09-03T18:59:23.226Z,6.22
2018-09-03T19:01:51.438Z,4.87
2018-09-03T19:04:19.631Z,4.87
2018-09-03T19:06:47.935Z,5.00
2018-09-03T19:09:16.143Z,4.95
2018-09-03T19:11:44.350Z,6.15
2018-09-03T19:14:12.548Z,5.15
2018-09-03T19:16:40.775Z,4.60
2018-09-03T19:19:08.973Z,4.85
2018-09-03T19:21:37.215Z,5.12
2018-09-03T19:24:05.413Z,6.92
2018-09-03T19:26:33.634Z,5.08
2018-09-03T19:29:01.826Z,6.78
2018-09-03T19:31:30.040Z,5.03
2018-09-03T19:33:58.239Z,6.72
2018-09-03T19:36:26.512Z,7.53
2018-09-03T19:38:54.710Z,6.10
2018-09-03T19:41:22.913Z,5.53
2018-09-03T19:43:51.100Z,5.30
2018-09-03T19:46:19.313Z,4.70
2018-09-03T19:48:47.503Z,5.12
2018-09-03T19:51:15.710Z,6.20
2018-09-03T19:53:43.915Z,7.50
2018-09-03T19:56:12.116Z,7.40
2018-09-03T19:58:40.323Z,5.75
2018-09-03T20:01:08.533Z,6.15
2018-09-03T20:03:36.747Z,6.28
2018-09-03T20:06:05.016Z,5.62
2018-09-03T20:08:33.693Z,6.22
2018-09-03T20:11:01.891Z,8.48
2018-09-03T20:13:30.117Z,10.20
2018-09-03T20:15:58.302Z,6.40
2018-09-03T20:18:26.511Z,10.10
2018-09-03T20:20:54.690Z,6.67
2018-09-03T20:23:22.938Z,9.95
2018-09-03T20:25:51.084Z,5.62
2018-09-03T20:28:19.311Z,6.37
2018-09-03T20:30:47.484Z,9.23
2018-09-03T20:33:15.679Z,7.95
2018-09-03T20:35:43.887Z,8.23
2018-09-03T20:38:12.091Z,9.33
2018-09-03T20:40:40.279Z,6.20
2018-09-03T20:43:08.467Z,11.63
2018-09-03T20:45:36.662Z,7.83
2018-09-03T20:48:04.862Z,6.62
2018-09-03T20:50:33.071Z,7.62
2018-09-03T20:53:01.281Z,8.28
2018-09-03T20:55:29.504Z,6.75
2018-09-03T20:57:57.689Z,7.50
2018-09-03T21:00:25.894Z,9.05
2018-09-03T21:02:54.095Z,8.33
2018-09-03T21:05:22.309Z,10.08
2018-09-03T21:07:50.506Z,6.95
2018-09-03T21:10:18.795Z,11.93
2018-09-03T21:12:47.229Z,8.78
2018-09-03T21:15:15.450Z,10.18
2018-09-03T21:17:43.687Z,11.05
2018-09-03T21:20:11.942Z,7.95
2018-09-03T21:22:40.132Z,6.87
2018-09-03T21:25:08.331Z,6.92
2018-09-03T21:27:36.539Z,8.78
2018-09-03T21:30:04.991Z,7.78
2018-09-03T21:32:33.190Z,7.20
2018-09-03T21:35:01.428Z,9.48
2018-09-03T21:37:29.606Z,7.08
2018-09-03T21:39:57.802Z,8.10
2018-09-03T21:42:26.013Z,9.05
2018-09-03T21:44:54.224Z,6.70
2018-09-03T21:47:22.447Z,7.28
2018-09-03T21:49:50.650Z,6.83
2018-09-03T21:52:19.040Z,6.08
2018-09-03T21:54:47.342Z,7.55
2018-09-03T21:57:15.562Z,6.50
2018-09-03T21:59:43.790Z,6.60
2018-09-03T22:02:12.002Z,6.42
2018-09-03T22:04:41.983Z,5.67
2018-09-03T22:07:10.470Z,7.53
2018-09-03T22:09:38.743Z,6.30
2018-09-03T22:12:07.094Z,6.33
2018-09-03T22:14:35.338Z,6.15
2018-09-03T22:17:03.533Z,5.83
2018-09-03T22:19:31.744Z,6.90
2018-09-03T22:21:59.934Z,4.87
2018-09-03T22:24:28.138Z,6.10
2018-09-03T22:26:56.345Z,6.05
2018-09-03T22:29:24.574Z,5.92
2018-09-03T22:31:52.773Z,5.65
2018-09-03T22:34:20.960Z,6.33
2018-09-03T22:36:49.169Z,6.22
2018-09-03T22:39:17.359Z,5.67
2018-09-03T22:41:45.554Z,6.97
2018-09-03T22:44:13.755Z,7.22
2018-09-03T22:46:41.968Z,6.22
2018-09-03T22:49:10.146Z,5.65
2018-09-03T22:51:38.575Z,5.37
2018-09-03T22:54:06.756Z,6.30
2018-09-03T22:56:34.955Z,6.20
2018-09-03T22:59:03.214Z,6.60
2018-09-03T23:01:31.411Z,7.22
2018-09-03T23:03:59.619Z,5.90
2018-09-03T23:06:27.808Z,7.20
2018-09-03T23:08:55.992Z,6.47
2018-09-03T23:11:24.203Z,6.22
2018-09-03T23:13:52.411Z,6.50
2018-09-03T23:16:20.630Z,5.92
2018-09-03T23:18:48.824Z,6.37
2018-09-03T23:21:18.102Z,6.00
2018-09-03T23:23:46.286Z,7.12
2018-09-03T23:26:14.507Z,6.05
2018-09-03T23:28:42.686Z,5.85
2018-09-03T23:31:10.894Z,6.55
2018-09-03T23:33:39.096Z,6.00
2018-09-03T23:36:07.305Z,8.40
2018-09-03T23:38:35.491Z,6.08
2018-09-03T23:41:03.711Z,5.80
2018-09-03T23:43:31.892Z,6.40
2018-09-03T23:46:00.091Z,5.80
2018-09-03T23:48:28.272Z,4.97
2018-09-03T23:50:56.454Z,5.97
2018-09-03T23:53:24.662Z,5.55
2018-09-03T23:55:52.875Z,6.65
2018-09-03T23:58:21.144Z,5.37
